メインページ
METAR-TAF:

METAR-TAF

空港 :

サンクトペテルブルク, ロシア

プルコヴォ空港

緯度: 59-58N, 経度: 030-18E, 海抜: 4m

現時点の気象観測

当レポートは37分前の23:00(UTC)に作成
無風
気温 1°C
湿度 93%
気圧 1005 hPa
視程10km以上
高度1000ftの雲はほとんどない
高度4000ftの雲は散在している

METAR: ULLI 232300Z 00000MPS 9999 FEW010 SCT040 01/M00 Q1005 R28L/190055 NOSIG

時間: 02:37 (23:37 UTC)

予報

当レポートは3時間42分前の19:55(UTC)に作成
予報は23日の 21時(UTC)から 24日の 21時(UTC)まで有効
西の風 6kt、最大16ktの突風を伴う
視程: 3000m
高度700ftの千切れ雲あり
23日の 22時(UTC)から 24日の 06時(UTC)まで一時的に
視程: 0400m
高度200ftの千切れ雲あり
24日の 06時(UTC)から 24日の 09時(UTC)まで一時的に
視程: 1000m
高度400ftの千切れ雲あり
高度1000ftの千切れ雲あり, 積乱雲.
にわか雪, 雨, 靄
24日の 09時(UTC)から 24日の 21時(UTC)まで一時的に
視程: 2500m
高度700ftの千切れ雲あり
高度1500ftの千切れ雲あり, 積乱雲.
弱いにわか雨, 靄

TAF: ULLI 231955Z 2321/2421 26003G08MPS 3000 BR BKN007 TEMPO 2322/2406 0400 FG BKN002 TEMPO 2406/2409 1000 SHSNRA BR BKN004 BKN010CB TEMPO 2409/2421 2500 -SHRA BR BKN007 BKN015CB

4,000以上の空港の気象観測と天気予報(METAR報とTAF報)

利用可能な観測所は地図上に黄色い丸と赤い丸で示す。

丸の上にカーソルを重ねると観測所名を参照できる。

次にクリックすると気象観測と天気予報を参照できる。

マップの切り替え:黒色「×」印の緑ボタンをクリックして拡大、「-」印の緑ボタンをクリックして縮小、緑色の三角印をクリックして隣りの地図に切り替え


METAR-TAF: